Dingxian, China
Current Conditions -  °F | °C
As of 12:00 AM on Sunday 23 Nov 2014 (Local Time) from ZBSJ Reporting Station
Smoke Smoke  
Wind Chill: 39°   Ceiling: Unl
Heat Index: 39°   Visibility: 1.2mi
Dew Point: 25°   Wind: 2mph
Humidity: 56%   Direction: 290°WNW
Pressure: 30.3"   Gusts: NA
Location:  38.51°N, 114.99°E
Report Text: ZBSJ 221600Z 29001MPS 2000 FU NSC 04/M04 Q1026 NOSIG
Loading
Personal Weather Stations






























Interactive Weather Map New forecast layout! Learn more

10-Day Weather Forecast

Advertisements
Track Severe Weather on mobile